sensor_id;sensor_type;location;lat;lon;timestamp;temperature;humidity
4530;DHT22;2277;51.626;7.516;2023-03-01T00:01:12;4.10;99.90
4530;DHT22;2277;51.626;7.516;2023-03-01T00:03:38;4.10;99.90
4530;DHT22;2277;51.626;7.516;2023-03-01T00:06:05;4.10;99.90
4530;DHT22;2277;51.626;7.516;2023-03-01T00:08:31;4.10;99.90
4530;DHT22;2277;51.626;7.516;2023-03-01T00:11:05;4.10;99.90
4530;DHT22;2277;51.626;7.516;2023-03-01T00:13:31;4.00;99.90
4530;DHT22;2277;51.626;7.516;2023-03-01T00:15:57;3.90;99.90
4530;DHT22;2277;51.626;7.516;2023-03-01T00:18:23;3.90;99.90
4530;DHT22;2277;51.626;7.516;2023-03-01T00:20:53;3.90;99.90
4530;DHT22;2277;51.626;7.516;2023-03-01T00:23:20;3.80;99.90
4530;DHT22;2277;51.626;7.516;2023-03-01T00:25:45;3.80;99.90
4530;DHT22;2277;51.626;7.516;2023-03-01T00:28:11;3.80;99.90
4530;DHT22;2277;51.626;7.516;2023-03-01T00:30:37;3.80;99.90
4530;DHT22;2277;51.626;7.516;2023-03-01T00:33:02;3.80;99.90
4530;DHT22;2277;51.626;7.516;2023-03-01T00:35:28;3.80;99.90
4530;DHT22;2277;51.626;7.516;2023-03-01T00:37:53;3.80;99.90
4530;DHT22;2277;51.626;7.516;2023-03-01T00:40:28;3.70;99.90
4530;DHT22;2277;51.626;7.516;2023-03-01T00:42:53;3.70;99.90
4530;DHT22;2277;51.626;7.516;2023-03-01T00:45:19;3.70;99.90
4530;DHT22;2277;51.626;7.516;2023-03-01T00:47:45;3.70;99.90
4530;DHT22;2277;51.626;7.516;2023-03-01T00:50:11;3.60;99.90
4530;DHT22;2277;51.626;7.516;2023-03-01T00:52:37;3.60;99.90
4530;DHT22;2277;51.626;7.516;2023-03-01T00:55:04;3.60;99.90
4530;DHT22;2277;51.626;7.516;2023-03-01T00:57:30;3.60;99.90
4530;DHT22;2277;51.626;7.516;2023-03-01T00:59:56;3.50;99.90
4530;DHT22;2277;51.626;7.516;2023-03-01T01:02:22;3.40;99.90
4530;DHT22;2277;51.626;7.516;2023-03-01T01:04:47;3.40;99.90
4530;DHT22;2277;51.626;7.516;2023-03-01T01:07:14;3.30;99.90
4530;DHT22;2277;51.626;7.516;2023-03-01T01:09:39;3.30;99.90
4530;DHT22;2277;51.626;7.516;2023-03-01T01:12:06;3.30;99.90
4530;DHT22;2277;51.626;7.516;2023-03-01T01:14:31;3.30;99.90
4530;DHT22;2277;51.626;7.516;2023-03-01T01:16:57;3.30;99.90
4530;DHT22;2277;51.626;7.516;2023-03-01T01:19:24;3.30;99.90
4530;DHT22;2277;51.626;7.516;2023-03-01T01:21:50;3.20;99.90
4530;DHT22;2277;51.626;7.516;2023-03-01T01:24:16;3.20;99.90
4530;DHT22;2277;51.626;7.516;2023-03-01T01:26:43;3.20;99.90
4530;DHT22;2277;51.626;7.516;2023-03-01T01:29:09;3.20;99.90
4530;DHT22;2277;51.626;7.516;2023-03-01T01:31:36;3.10;99.90
4530;DHT22;2277;51.626;7.516;2023-03-01T01:34:03;3.10;99.90
4530;DHT22;2277;51.626;7.516;2023-03-01T01:36:30;3.00;99.90
4530;DHT22;2277;51.626;7.516;2023-03-01T01:38:56;3.00;99.90
4530;DHT22;2277;51.626;7.516;2023-03-01T01:41:22;3.00;99.90
4530;DHT22;2277;51.626;7.516;2023-03-01T01:46:47;3.10;99.90
4530;DHT22;2277;51.626;7.516;2023-03-01T01:49:36;3.00;99.90
4530;DHT22;2277;51.626;7.516;2023-03-01T01:54:45;2.90;99.90
4530;DHT22;2277;51.626;7.516;2023-03-01T01:57:16;2.90;99.90
4530;DHT22;2277;51.626;7.516;2023-03-01T01:59:45;2.90;99.90
4530;DHT22;2277;51.626;7.516;2023-03-01T02:02:13;3.00;99.90
4530;DHT22;2277;51.626;7.516;2023-03-01T02:04:39;2.90;99.90
4530;DHT22;2277;51.626;7.516;2023-03-01T02:07:25;2.90;99.90
4530;DHT22;2277;51.626;7.516;2023-03-01T02:09:52;2.80;99.90
4530;DHT22;2277;51.626;7.516;2023-03-01T02:12:20;2.80;99.90
4530;DHT22;2277;51.626;7.516;2023-03-01T02:14:48;2.80;99.90
4530;DHT22;2277;51.626;7.516;2023-03-01T02:17:15;2.80;99.90
4530;DHT22;2277;51.626;7.516;2023-03-01T02:22:23;2.70;99.90
4530;DHT22;2277;51.626;7.516;2023-03-01T02:24:53;2.70;99.90
4530;DHT22;2277;51.626;7.516;2023-03-01T02:27:23;2.70;99.90
4530;DHT22;2277;51.626;7.516;2023-03-01T02:29:51;2.70;99.90
4530;DHT22;2277;51.626;7.516;2023-03-01T02:32:17;2.60;99.90
4530;DHT22;2277;51.626;7.516;2023-03-01T02:34:52;2.60;99.90
4530;DHT22;2277;51.626;7.516;2023-03-01T02:37:19;2.60;99.90
4530;DHT22;2277;51.626;7.516;2023-03-01T02:39:58;2.60;99.90
4530;DHT22;2277;51.626;7.516;2023-03-01T02:42:31;2.70;99.90
4530;DHT22;2277;51.626;7.516;2023-03-01T02:44:58;2.60;99.90
4530;DHT22;2277;51.626;7.516;2023-03-01T02:47:24;2.60;99.90
4530;DHT22;2277;51.626;7.516;2023-03-01T02:49:49;2.50;99.90
4530;DHT22;2277;51.626;7.516;2023-03-01T02:52:34;2.50;99.90
4530;DHT22;2277;51.626;7.516;2023-03-01T02:55:13;2.40;99.90
4530;DHT22;2277;51.626;7.516;2023-03-01T02:57:41;2.40;99.90
4530;DHT22;2277;51.626;7.516;2023-03-01T03:00:11;2.50;99.90
4530;DHT22;2277;51.626;7.516;2023-03-01T03:02:48;2.50;99.90
4530;DHT22;2277;51.626;7.516;2023-03-01T03:05:17;2.50;99.90
4530;DHT22;2277;51.626;7.516;2023-03-01T03:07:44;2.50;99.90
4530;DHT22;2277;51.626;7.516;2023-03-01T03:10:17;2.40;99.90
4530;DHT22;2277;51.626;7.516;2023-03-01T03:12:58;2.40;99.90
4530;DHT22;2277;51.626;7.516;2023-03-01T03:15:25;2.40;99.90
4530;DHT22;2277;51.626;7.516;2023-03-01T03:17:52;2.40;99.90
4530;DHT22;2277;51.626;7.516;2023-03-01T03:20:20;2.30;99.90
4530;DHT22;2277;51.626;7.516;2023-03-01T03:22:49;2.20;99.90
4530;DHT22;2277;51.626;7.516;2023-03-01T03:25:15;2.20;99.90
4530;DHT22;2277;51.626;7.516;2023-03-01T03:27:42;2.20;99.90
4530;DHT22;2277;51.626;7.516;2023-03-01T03:30:12;2.20;99.90
4530;DHT22;2277;51.626;7.516;2023-03-01T03:32:40;2.20;99.90
4530;DHT22;2277;51.626;7.516;2023-03-01T03:35:08;2.10;99.90
4530;DHT22;2277;51.626;7.516;2023-03-01T03:37:41;2.10;99.90
4530;DHT22;2277;51.626;7.516;2023-03-01T03:40:27;2.00;99.90
4530;DHT22;2277;51.626;7.516;2023-03-01T03:42:52;2.00;99.90
4530;DHT22;2277;51.626;7.516;2023-03-01T03:45:18;2.00;99.90
4530;DHT22;2277;51.626;7.516;2023-03-01T03:47:44;2.00;99.90
4530;DHT22;2277;51.626;7.516;2023-03-01T03:50:11;2.00;99.90
4530;DHT22;2277;51.626;7.516;2023-03-01T03:52:37;2.00;99.90
4530;DHT22;2277;51.626;7.516;2023-03-01T03:55:04;2.00;99.90
4530;DHT22;2277;51.626;7.516;2023-03-01T03:57:35;2.00;99.90
4530;DHT22;2277;51.626;7.516;2023-03-01T04:00:00;1.90;99.90
4530;DHT22;2277;51.626;7.516;2023-03-01T04:02:26;1.90;99.90
4530;DHT22;2277;51.626;7.516;2023-03-01T04:04:51;1.90;99.90
4530;DHT22;2277;51.626;7.516;2023-03-01T04:07:17;1.90;99.90
4530;DHT22;2277;51.626;7.516;2023-03-01T04:09:43;1.90;99.90
4530;DHT22;2277;51.626;7.516;2023-03-01T04:12:10;1.90;99.90
4530;DHT22;2277;51.626;7.516;2023-03-01T04:14:36;1.80;99.90
4530;DHT22;2277;51.626;7.516;2023-03-01T04:17:01;1.80;99.90
4530;DHT22;2277;51.626;7.516;2023-03-01T04:19:33;1.80;99.90
4530;DHT22;2277;51.626;7.516;2023-03-01T04:22:02;1.70;99.90
4530;DHT22;2277;51.626;7.516;2023-03-01T04:24:33;1.70;99.90
4530;DHT22;2277;51.626;7.516;2023-03-01T04:26:58;1.70;99.90
4530;DHT22;2277;51.626;7.516;2023-03-01T04:29:24;1.60;99.90
4530;DHT22;2277;51.626;7.516;2023-03-01T04:31:50;1.60;99.90
4530;DHT22;2277;51.626;7.516;2023-03-01T04:34:15;1.60;99.90
4530;DHT22;2277;51.626;7.516;2023-03-01T04:36:41;1.60;99.90
4530;DHT22;2277;51.626;7.516;2023-03-01T04:39:06;1.50;99.90
4530;DHT22;2277;51.626;7.516;2023-03-01T04:41:38;1.40;99.90
4530;DHT22;2277;51.626;7.516;2023-03-01T04:44:08;1.30;99.90
4530;DHT22;2277;51.626;7.516;2023-03-01T04:46:35;1.30;99.90
4530;DHT22;2277;51.626;7.516;2023-03-01T04:49:01;1.40;99.90
4530;DHT22;2277;51.626;7.516;2023-03-01T04:51:26;1.40;99.90
4530;DHT22;2277;51.626;7.516;2023-03-01T04:53:52;1.40;99.90
4530;DHT22;2277;51.626;7.516;2023-03-01T04:56:17;1.40;99.90
4530;DHT22;2277;51.626;7.516;2023-03-01T04:58:44;1.50;99.90
4530;DHT22;2277;51.626;7.516;2023-03-01T05:01:17;1.50;99.90
4530;DHT22;2277;51.626;7.516;2023-03-01T05:03:45;1.50;99.90
4530;DHT22;2277;51.626;7.516;2023-03-01T05:06:10;1.40;99.90
4530;DHT22;2277;51.626;7.516;2023-03-01T05:08:38;1.40;99.90
4530;DHT22;2277;51.626;7.516;2023-03-01T05:11:04;1.40;99.90
4530;DHT22;2277;51.626;7.516;2023-03-01T05:13:31;1.40;99.90
4530;DHT22;2277;51.626;7.516;2023-03-01T05:15:59;1.30;99.90
4530;DHT22;2277;51.626;7.516;2023-03-01T05:18:26;1.20;99.90
4530;DHT22;2277;51.626;7.516;2023-03-01T05:20:53;1.20;99.90
4530;DHT22;2277;51.626;7.516;2023-03-01T05:23:22;1.20;99.90
4530;DHT22;2277;51.626;7.516;2023-03-01T05:25:47;1.20;99.90
4530;DHT22;2277;51.626;7.516;2023-03-01T05:28:14;1.20;99.90
4530;DHT22;2277;51.626;7.516;2023-03-01T05:30:41;1.20;99.90
4530;DHT22;2277;51.626;7.516;2023-03-01T05:33:07;1.20;99.90
4530;DHT22;2277;51.626;7.516;2023-03-01T05:35:39;1.20;99.90
4530;DHT22;2277;51.626;7.516;2023-03-01T05:38:06;1.20;99.90
4530;DHT22;2277;51.626;7.516;2023-03-01T05:40:34;1.20;99.90
4530;DHT22;2277;51.626;7.516;2023-03-01T05:43:00;1.20;99.90
4530;DHT22;2277;51.626;7.516;2023-03-01T05:45:26;1.20;99.90
4530;DHT22;2277;51.626;7.516;2023-03-01T05:47:53;1.20;99.90
4530;DHT22;2277;51.626;7.516;2023-03-01T05:50:26;1.20;99.90
4530;DHT22;2277;51.626;7.516;2023-03-01T05:53:00;1.20;99.90
4530;DHT22;2277;51.626;7.516;2023-03-01T05:55:27;1.20;99.90
4530;DHT22;2277;51.626;7.516;2023-03-01T05:57:53;1.20;99.90
4530;DHT22;2277;51.626;7.516;2023-03-01T06:00:20;1.10;99.90
4530;DHT22;2277;51.626;7.516;2023-03-01T06:02:48;1.10;99.90
4530;DHT22;2277;51.626;7.516;2023-03-01T06:05:14;1.10;99.90
4530;DHT22;2277;51.626;7.516;2023-03-01T06:07:41;1.10;99.90
4530;DHT22;2277;51.626;7.516;2023-03-01T06:10:08;1.10;99.90
4530;DHT22;2277;51.626;7.516;2023-03-01T06:12:36;1.10;99.90
4530;DHT22;2277;51.626;7.516;2023-03-01T06:15:03;1.10;99.90
4530;DHT22;2277;51.626;7.516;2023-03-01T06:17:31;1.00;99.90
4530;DHT22;2277;51.626;7.516;2023-03-01T06:19:57;1.10;99.90
4530;DHT22;2277;51.626;7.516;2023-03-01T06:22:23;1.10;99.90
4530;DHT22;2277;51.626;7.516;2023-03-01T06:24:49;1.00;99.90
4530;DHT22;2277;51.626;7.516;2023-03-01T06:27:15;1.00;99.90
4530;DHT22;2277;51.626;7.516;2023-03-01T06:29:40;1.00;99.90
4530;DHT22;2277;51.626;7.516;2023-03-01T06:32:06;1.00;99.90
4530;DHT22;2277;51.626;7.516;2023-03-01T06:34:33;1.00;99.90
4530;DHT22;2277;51.626;7.516;2023-03-01T06:36:59;0.90;99.90
4530;DHT22;2277;51.626;7.516;2023-03-01T06:39:24;0.90;99.90
4530;DHT22;2277;51.626;7.516;2023-03-01T06:41:50;0.90;99.90
4530;DHT22;2277;51.626;7.516;2023-03-01T06:44:15;0.90;99.90
4530;DHT22;2277;51.626;7.516;2023-03-01T06:46:41;0.90;99.90
4530;DHT22;2277;51.626;7.516;2023-03-01T06:49:06;0.90;99.90
4530;DHT22;2277;51.626;7.516;2023-03-01T06:51:35;0.90;99.90
4530;DHT22;2277;51.626;7.516;2023-03-01T06:54:03;0.90;99.90
4530;DHT22;2277;51.626;7.516;2023-03-01T06:56:29;1.00;99.90
4530;DHT22;2277;51.626;7.516;2023-03-01T06:58:54;1.00;99.90
4530;DHT22;2277;51.626;7.516;2023-03-01T07:01:20;1.10;99.90
4530;DHT22;2277;51.626;7.516;2023-03-01T07:03:45;1.10;99.90
4530;DHT22;2277;51.626;7.516;2023-03-01T07:06:11;1.20;99.90
4530;DHT22;2277;51.626;7.516;2023-03-01T07:08:37;1.30;99.90
4530;DHT22;2277;51.626;7.516;2023-03-01T07:11:02;1.50;99.90
4530;DHT22;2277;51.626;7.516;2023-03-01T07:13:29;1.60;99.90
4530;DHT22;2277;51.626;7.516;2023-03-01T07:15:55;1.70;99.90
4530;DHT22;2277;51.626;7.516;2023-03-01T07:18:21;1.80;99.90
4530;DHT22;2277;51.626;7.516;2023-03-01T07:20:47;1.90;99.90
4530;DHT22;2277;51.626;7.516;2023-03-01T07:23:12;1.90;99.90
4530;DHT22;2277;51.626;7.516;2023-03-01T07:25:38;2.00;99.90
4530;DHT22;2277;51.626;7.516;2023-03-01T07:28:04;2.10;99.90
4530;DHT22;2277;51.626;7.516;2023-03-01T07:30:29;2.10;99.90
4530;DHT22;2277;51.626;7.516;2023-03-01T07:32:57;2.10;99.90
4530;DHT22;2277;51.626;7.516;2023-03-01T07:35:24;2.00;99.90
4530;DHT22;2277;51.626;7.516;2023-03-01T07:37:51;1.90;99.90
4530;DHT22;2277;51.626;7.516;2023-03-01T07:40:17;1.90;99.90
4530;DHT22;2277;51.626;7.516;2023-03-01T07:42:42;1.80;99.90
4530;DHT22;2277;51.626;7.516;2023-03-01T07:45:09;1.80;99.90
4530;DHT22;2277;51.626;7.516;2023-03-01T07:47:35;1.90;99.90
4530;DHT22;2277;51.626;7.516;2023-03-01T07:50:01;2.10;99.90
4530;DHT22;2277;51.626;7.516;2023-03-01T07:52:28;2.40;99.90
4530;DHT22;2277;51.626;7.516;2023-03-01T07:54:53;2.60;99.90
4530;DHT22;2277;51.626;7.516;2023-03-01T07:57:19;2.70;99.90
4530;DHT22;2277;51.626;7.516;2023-03-01T07:59:45;2.90;99.90
4530;DHT22;2277;51.626;7.516;2023-03-01T08:02:11;3.10;99.90
4530;DHT22;2277;51.626;7.516;2023-03-01T08:04:37;3.20;99.90
4530;DHT22;2277;51.626;7.516;2023-03-01T08:07:05;3.30;99.90
4530;DHT22;2277;51.626;7.516;2023-03-01T08:09:31;3.30;99.90
4530;DHT22;2277;51.626;7.516;2023-03-01T08:11:57;3.30;99.90
4530;DHT22;2277;51.626;7.516;2023-03-01T08:14:25;3.40;99.90
4530;DHT22;2277;51.626;7.516;2023-03-01T08:16:50;3.40;99.90
4530;DHT22;2277;51.626;7.516;2023-03-01T08:19:16;3.40;99.90
4530;DHT22;2277;51.626;7.516;2023-03-01T08:21:42;3.40;99.90
4530;DHT22;2277;51.626;7.516;2023-03-01T08:24:08;3.50;99.90
4530;DHT22;2277;51.626;7.516;2023-03-01T08:26:36;3.80;99.90
4530;DHT22;2277;51.626;7.516;2023-03-01T08:29:02;3.90;99.90
4530;DHT22;2277;51.626;7.516;2023-03-01T08:31:34;4.20;99.90
4530;DHT22;2277;51.626;7.516;2023-03-01T08:34:05;4.50;99.90
4530;DHT22;2277;51.626;7.516;2023-03-01T08:36:41;4.60;99.90
4530;DHT22;2277;51.626;7.516;2023-03-01T08:39:08;4.80;99.90
4530;DHT22;2277;51.626;7.516;2023-03-01T08:41:34;4.90;99.90
4530;DHT22;2277;51.626;7.516;2023-03-01T08:44:00;5.00;99.90
4530;DHT22;2277;51.626;7.516;2023-03-01T08:46:37;4.90;99.90
4530;DHT22;2277;51.626;7.516;2023-03-01T08:49:08;4.80;99.90
4530;DHT22;2277;51.626;7.516;2023-03-01T08:51:34;5.00;99.90
4530;DHT22;2277;51.626;7.516;2023-03-01T08:54:06;4.80;99.90
4530;DHT22;2277;51.626;7.516;2023-03-01T08:56:33;5.00;99.90
4530;DHT22;2277;51.626;7.516;2023-03-01T08:58:59;5.30;99.90
4530;DHT22;2277;51.626;7.516;2023-03-01T09:01:25;5.50;99.90
4530;DHT22;2277;51.626;7.516;2023-03-01T09:03:50;5.70;99.90
4530;DHT22;2277;51.626;7.516;2023-03-01T09:06:16;5.80;99.90
4530;DHT22;2277;51.626;7.516;2023-03-01T09:08:46;5.80;99.90
4530;DHT22;2277;51.626;7.516;2023-03-01T09:11:15;6.10;99.90
4530;DHT22;2277;51.626;7.516;2023-03-01T09:13:42;6.40;99.90
4530;DHT22;2277;51.626;7.516;2023-03-01T09:16:08;6.50;99.90
4530;DHT22;2277;51.626;7.516;2023-03-01T09:18:35;6.70;99.90
4530;DHT22;2277;51.626;7.516;2023-03-01T09:21:10;7.00;99.90
4530;DHT22;2277;51.626;7.516;2023-03-01T09:23:41;7.20;99.90
4530;DHT22;2277;51.626;7.516;2023-03-01T09:26:11;7.20;99.90
4530;DHT22;2277;51.626;7.516;2023-03-01T09:28:37;7.10;99.90
4530;DHT22;2277;51.626;7.516;2023-03-01T09:31:03;7.10;99.90
4530;DHT22;2277;51.626;7.516;2023-03-01T09:33:30;7.20;99.90
4530;DHT22;2277;51.626;7.516;2023-03-01T09:36:06;7.20;99.90
4530;DHT22;2277;51.626;7.516;2023-03-01T09:38:33;7.40;99.90
4530;DHT22;2277;51.626;7.516;2023-03-01T09:41:00;7.70;99.90
4530;DHT22;2277;51.626;7.516;2023-03-01T09:43:46;8.10;99.90
4530;DHT22;2277;51.626;7.516;2023-03-01T09:46:14;8.50;99.90
4530;DHT22;2277;51.626;7.516;2023-03-01T09:48:57;8.50;99.90
4530;DHT22;2277;51.626;7.516;2023-03-01T09:51:31;8.80;99.90
4530;DHT22;2277;51.626;7.516;2023-03-01T09:53:58;9.10;99.90
4530;DHT22;2277;51.626;7.516;2023-03-01T10:08:19;9.00;95.50
4530;DHT22;2277;51.626;7.516;2023-03-01T10:10:43;9.30;96.10
4530;DHT22;2277;51.626;7.516;2023-03-01T10:13:21;9.80;96.70
4530;DHT22;2277;51.626;7.516;2023-03-01T10:15:57;10.20;94.10
4530;DHT22;2277;51.626;7.516;2023-03-01T10:18:28;10.00;91.60
4530;DHT22;2277;51.626;7.516;2023-03-01T10:21:03;9.60;92.00
4530;DHT22;2277;51.626;7.516;2023-03-01T10:23:34;10.20;93.50
4530;DHT22;2277;51.626;7.516;2023-03-01T10:28:44;10.20;90.80
4530;DHT22;2277;51.626;7.516;2023-03-01T10:31:19;9.90;90.50
4530;DHT22;2277;51.626;7.516;2023-03-01T10:33:45;10.10;87.30
4530;DHT22;2277;51.626;7.516;2023-03-01T10:36:13;10.40;90.40
4530;DHT22;2277;51.626;7.516;2023-03-01T10:38:53;10.80;88.00
4530;DHT22;2277;51.626;7.516;2023-03-01T10:41:23;10.90;85.90
4530;DHT22;2277;51.626;7.516;2023-03-01T10:46:30;10.50;78.00
4530;DHT22;2277;51.626;7.516;2023-03-01T10:49:17;10.10;78.40
4530;DHT22;2277;51.626;7.516;2023-03-01T10:51:45;9.90;81.60
4530;DHT22;2277;51.626;7.516;2023-03-01T10:54:25;10.30;81.80
4530;DHT22;2277;51.626;7.516;2023-03-01T10:56:55;10.30;79.20
4530;DHT22;2277;51.626;7.516;2023-03-01T10:59:33;10.20;80.40
4530;DHT22;2277;51.626;7.516;2023-03-01T11:02:23;10.30;79.70
4530;DHT22;2277;51.626;7.516;2023-03-01T11:05:21;10.40;81.00
4530;DHT22;2277;51.626;7.516;2023-03-01T11:07:57;10.60;80.90
4530;DHT22;2277;51.626;7.516;2023-03-01T11:10:29;10.30;77.60
4530;DHT22;2277;51.626;7.516;2023-03-01T11:13:24;10.70;81.00
4530;DHT22;2277;51.626;7.516;2023-03-01T11:16:06;10.90;77.00
4530;DHT22;2277;51.626;7.516;2023-03-01T11:18:32;11.30;81.50
4530;DHT22;2277;51.626;7.516;2023-03-01T11:20:59;11.80;79.60
4530;DHT22;2277;51.626;7.516;2023-03-01T11:23:28;12.20;81.00
4530;DHT22;2277;51.626;7.516;2023-03-01T11:26:04;12.20;74.30
4530;DHT22;2277;51.626;7.516;2023-03-01T11:28:31;12.20;72.50
4530;DHT22;2277;51.626;7.516;2023-03-01T11:31:06;11.90;71.60
4530;DHT22;2277;51.626;7.516;2023-03-01T11:42:15;11.50;69.00
4530;DHT22;2277;51.626;7.516;2023-03-01T11:44:44;11.60;71.00
4530;DHT22;2277;51.626;7.516;2023-03-01T11:53:19;12.70;73.50
4530;DHT22;2277;51.626;7.516;2023-03-01T11:56:05;13.00;72.70
4530;DHT22;2277;51.626;7.516;2023-03-01T12:01:32;13.30;71.80
4530;DHT22;2277;51.626;7.516;2023-03-01T12:26:02;14.10;64.80
4530;DHT22;2277;51.626;7.516;2023-03-01T12:37:09;13.70;60.00
4530;DHT22;2277;51.626;7.516;2023-03-01T12:39:42;14.20;61.70
4530;DHT22;2277;51.626;7.516;2023-03-01T12:48:00;15.30;61.30
4530;DHT22;2277;51.626;7.516;2023-03-01T12:53:07;15.00;58.00
4530;DHT22;2277;51.626;7.516;2023-03-01T12:55:42;15.20;59.00
4530;DHT22;2277;51.626;7.516;2023-03-01T12:58:30;15.50;59.30
4530;DHT22;2277;51.626;7.516;2023-03-01T13:06:35;15.70;57.80
4530;DHT22;2277;51.626;7.516;2023-03-01T13:09:05;15.80;57.50
4530;DHT22;2277;51.626;7.516;2023-03-01T13:11:32;16.00;57.60
4530;DHT22;2277;51.626;7.516;2023-03-01T13:16:57;16.30;58.50
4530;DHT22;2277;51.626;7.516;2023-03-01T13:19:25;16.50;56.40
4530;DHT22;2277;51.626;7.516;2023-03-01T13:21:53;16.70;57.10
4530;DHT22;2277;51.626;7.516;2023-03-01T13:24:39;16.80;55.90
4530;DHT22;2277;51.626;7.516;2023-03-01T13:29:54;17.00;53.70
4530;DHT22;2277;51.626;7.516;2023-03-01T13:32:26;17.00;53.70
4530;DHT22;2277;51.626;7.516;2023-03-01T13:35:01;16.90;53.60
4530;DHT22;2277;51.626;7.516;2023-03-01T13:37:29;16.80;53.30
4530;DHT22;2277;51.626;7.516;2023-03-01T13:40:05;16.70;53.80
4530;DHT22;2277;51.626;7.516;2023-03-01T13:42:35;16.70;52.30
4530;DHT22;2277;51.626;7.516;2023-03-01T13:45:04;16.70;53.40
4530;DHT22;2277;51.626;7.516;2023-03-01T13:47:30;16.50;52.40
4530;DHT22;2277;51.626;7.516;2023-03-01T13:50:00;16.60;54.50
4530;DHT22;2277;51.626;7.516;2023-03-01T13:52:45;16.70;54.20
4530;DHT22;2277;51.626;7.516;2023-03-01T13:57:39;16.00;52.50
4530;DHT22;2277;51.626;7.516;2023-03-01T14:00:05;15.90;53.90
4530;DHT22;2277;51.626;7.516;2023-03-01T14:02:31;16.00;53.70
4530;DHT22;2277;51.626;7.516;2023-03-01T14:05:01;16.00;53.80
4530;DHT22;2277;51.626;7.516;2023-03-01T14:07:27;16.10;53.30
4530;DHT22;2277;51.626;7.516;2023-03-01T14:10:01;16.30;53.00
4530;DHT22;2277;51.626;7.516;2023-03-01T14:20:21;16.60;52.50
4530;DHT22;2277;51.626;7.516;2023-03-01T14:22:49;16.60;52.10
4530;DHT22;2277;51.626;7.516;2023-03-01T14:25:28;16.70;53.00
4530;DHT22;2277;51.626;7.516;2023-03-01T14:28:19;16.60;52.20
4530;DHT22;2277;51.626;7.516;2023-03-01T14:30:57;16.60;52.80
4530;DHT22;2277;51.626;7.516;2023-03-01T14:33:32;16.70;52.20
4530;DHT22;2277;51.626;7.516;2023-03-01T14:36:06;16.50;51.90
4530;DHT22;2277;51.626;7.516;2023-03-01T14:38:35;16.50;52.40
4530;DHT22;2277;51.626;7.516;2023-03-01T14:41:25;16.50;52.40
4530;DHT22;2277;51.626;7.516;2023-03-01T14:43:57;16.40;51.80
4530;DHT22;2277;51.626;7.516;2023-03-01T14:49:21;16.30;52.40
4530;DHT22;2277;51.626;7.516;2023-03-01T14:52:02;16.30;51.20
4530;DHT22;2277;51.626;7.516;2023-03-01T14:54:30;16.20;50.80
4530;DHT22;2277;51.626;7.516;2023-03-01T14:57:01;16.20;51.00
4530;DHT22;2277;51.626;7.516;2023-03-01T14:59:28;15.80;49.10
4530;DHT22;2277;51.626;7.516;2023-03-01T15:01:57;15.90;51.40
4530;DHT22;2277;51.626;7.516;2023-03-01T15:04:24;16.10;50.90
4530;DHT22;2277;51.626;7.516;2023-03-01T15:06:52;16.20;51.70
4530;DHT22;2277;51.626;7.516;2023-03-01T15:09:19;16.20;50.30
4530;DHT22;2277;51.626;7.516;2023-03-01T15:11:45;16.00;49.50
4530;DHT22;2277;51.626;7.516;2023-03-01T15:14:48;16.00;50.50
4530;DHT22;2277;51.626;7.516;2023-03-01T15:17:36;15.70;49.00
4530;DHT22;2277;51.626;7.516;2023-03-01T15:20:13;15.60;49.40
4530;DHT22;2277;51.626;7.516;2023-03-01T15:22:44;15.80;50.30
4530;DHT22;2277;51.626;7.516;2023-03-01T15:25:26;15.60;47.80
4530;DHT22;2277;51.626;7.516;2023-03-01T15:27:54;15.70;48.40
4530;DHT22;2277;51.626;7.516;2023-03-01T15:30:31;15.10;46.50
4530;DHT22;2277;51.626;7.516;2023-03-01T15:35:50;14.20;48.50
4530;DHT22;2277;51.626;7.516;2023-03-01T15:41:03;13.70;48.60
4530;DHT22;2277;51.626;7.516;2023-03-01T15:46:16;14.00;48.80
4530;DHT22;2277;51.626;7.516;2023-03-01T15:48:47;13.80;49.30
4530;DHT22;2277;51.626;7.516;2023-03-01T15:51:15;13.80;49.40
4530;DHT22;2277;51.626;7.516;2023-03-01T15:53:42;13.70;49.30
4530;DHT22;2277;51.626;7.516;2023-03-01T15:56:09;13.30;48.70
4530;DHT22;2277;51.626;7.516;2023-03-01T15:58:34;13.30;50.40
4530;DHT22;2277;51.626;7.516;2023-03-01T16:01:00;13.50;50.70
4530;DHT22;2277;51.626;7.516;2023-03-01T16:03:26;13.40;50.00
4530;DHT22;2277;51.626;7.516;2023-03-01T16:05:51;13.30;49.70
4530;DHT22;2277;51.626;7.516;2023-03-01T16:08:18;13.10;51.50
4530;DHT22;2277;51.626;7.516;2023-03-01T16:10:44;13.10;51.30
4530;DHT22;2277;51.626;7.516;2023-03-01T16:13:11;13.00;51.00
4530;DHT22;2277;51.626;7.516;2023-03-01T16:15:37;12.90;50.80
4530;DHT22;2277;51.626;7.516;2023-03-01T16:18:04;12.90;51.30
4530;DHT22;2277;51.626;7.516;2023-03-01T16:20:30;12.80;51.80
4530;DHT22;2277;51.626;7.516;2023-03-01T16:23:02;12.70;52.40
4530;DHT22;2277;51.626;7.516;2023-03-01T16:25:29;12.60;52.10
4530;DHT22;2277;51.626;7.516;2023-03-01T16:27:55;12.50;52.30
4530;DHT22;2277;51.626;7.516;2023-03-01T16:30:22;12.40;53.00
4530;DHT22;2277;51.626;7.516;2023-03-01T16:32:49;12.30;53.50
4530;DHT22;2277;51.626;7.516;2023-03-01T16:35:17;12.30;53.50
4530;DHT22;2277;51.626;7.516;2023-03-01T16:37:43;12.10;52.80
4530;DHT22;2277;51.626;7.516;2023-03-01T16:40:28;12.00;53.90
4530;DHT22;2277;51.626;7.516;2023-03-01T16:42:55;12.00;54.10
4530;DHT22;2277;51.626;7.516;2023-03-01T16:45:25;12.00;54.70
4530;DHT22;2277;51.626;7.516;2023-03-01T16:47:52;11.80;53.50
4530;DHT22;2277;51.626;7.516;2023-03-01T16:50:18;11.80;54.20
4530;DHT22;2277;51.626;7.516;2023-03-01T16:52:44;11.70;53.80
4530;DHT22;2277;51.626;7.516;2023-03-01T16:55:10;11.70;54.50
4530;DHT22;2277;51.626;7.516;2023-03-01T16:57:37;11.60;55.20
4530;DHT22;2277;51.626;7.516;2023-03-01T17:00:04;11.50;54.80
4530;DHT22;2277;51.626;7.516;2023-03-01T17:02:33;11.50;53.80
4530;DHT22;2277;51.626;7.516;2023-03-01T17:04:59;11.40;54.60
4530;DHT22;2277;51.626;7.516;2023-03-01T17:07:25;11.30;55.50
4530;DHT22;2277;51.626;7.516;2023-03-01T17:09:50;11.30;54.70
4530;DHT22;2277;51.626;7.516;2023-03-01T17:12:16;11.20;54.40
4530;DHT22;2277;51.626;7.516;2023-03-01T17:14:42;11.20;54.20
4530;DHT22;2277;51.626;7.516;2023-03-01T17:17:08;11.00;55.20
4530;DHT22;2277;51.626;7.516;2023-03-01T17:19:35;11.00;54.70
4530;DHT22;2277;51.626;7.516;2023-03-01T17:22:05;10.90;54.80
4530;DHT22;2277;51.626;7.516;2023-03-01T17:24:35;10.80;55.20
4530;DHT22;2277;51.626;7.516;2023-03-01T17:27:01;10.80;55.30
4530;DHT22;2277;51.626;7.516;2023-03-01T17:29:27;10.70;55.80
4530;DHT22;2277;51.626;7.516;2023-03-01T17:31:52;10.70;56.40
4530;DHT22;2277;51.626;7.516;2023-03-01T17:34:20;10.60;57.50
4530;DHT22;2277;51.626;7.516;2023-03-01T17:36:45;10.50;58.00
4530;DHT22;2277;51.626;7.516;2023-03-01T17:39:12;10.40;58.30
4530;DHT22;2277;51.626;7.516;2023-03-01T17:41:38;10.30;58.70
4530;DHT22;2277;51.626;7.516;2023-03-01T17:44:04;10.30;59.50
4530;DHT22;2277;51.626;7.516;2023-03-01T17:46:29;10.30;59.20
4530;DHT22;2277;51.626;7.516;2023-03-01T17:48:55;10.10;59.20
4530;DHT22;2277;51.626;7.516;2023-03-01T17:51:21;10.10;60.10
4530;DHT22;2277;51.626;7.516;2023-03-01T17:53:47;10.10;60.00
4530;DHT22;2277;51.626;7.516;2023-03-01T17:56:12;10.00;60.00
4530;DHT22;2277;51.626;7.516;2023-03-01T17:58:38;10.10;60.10
4530;DHT22;2277;51.626;7.516;2023-03-01T18:01:12;10.00;61.70
4530;DHT22;2277;51.626;7.516;2023-03-01T18:03:39;9.90;62.80
4530;DHT22;2277;51.626;7.516;2023-03-01T18:06:17;9.80;62.50
4530;DHT22;2277;51.626;7.516;2023-03-01T18:08:44;9.70;62.60
4530;DHT22;2277;51.626;7.516;2023-03-01T18:11:10;9.70;63.00
4530;DHT22;2277;51.626;7.516;2023-03-01T18:13:37;9.70;62.70
4530;DHT22;2277;51.626;7.516;2023-03-01T18:16:08;9.60;61.70
4530;DHT22;2277;51.626;7.516;2023-03-01T18:18:34;9.50;61.60